sensor_id;sensor_type;location;lat;lon;timestamp;temperature;humidity
52495;DHT22;38405;53.212;5.660;2023-08-07T00:01:54;14.80;99.90
52495;DHT22;38405;53.212;5.660;2023-08-07T00:04:20;14.80;99.90
52495;DHT22;38405;53.212;5.660;2023-08-07T00:06:45;14.70;99.90
52495;DHT22;38405;53.212;5.660;2023-08-07T00:09:11;14.70;99.90
52495;DHT22;38405;53.212;5.660;2023-08-07T00:11:37;14.70;99.90
52495;DHT22;38405;53.212;5.660;2023-08-07T00:14:02;14.70;99.90
52495;DHT22;38405;53.212;5.660;2023-08-07T00:16:28;14.70;99.90
52495;DHT22;38405;53.212;5.660;2023-08-07T00:18:54;14.70;99.90
52495;DHT22;38405;53.212;5.660;2023-08-07T00:21:22;14.70;99.90
52495;DHT22;38405;53.212;5.660;2023-08-07T00:23:49;14.70;99.90
52495;DHT22;38405;53.212;5.660;2023-08-07T00:26:15;14.70;99.90
52495;DHT22;38405;53.212;5.660;2023-08-07T00:28:41;14.60;99.90
52495;DHT22;38405;53.212;5.660;2023-08-07T00:31:07;14.70;99.90
52495;DHT22;38405;53.212;5.660;2023-08-07T00:33:32;14.70;99.90
52495;DHT22;38405;53.212;5.660;2023-08-07T00:35:58;14.70;99.90
52495;DHT22;38405;53.212;5.660;2023-08-07T00:38:24;14.70;99.90
52495;DHT22;38405;53.212;5.660;2023-08-07T00:40:49;14.70;99.90
52495;DHT22;38405;53.212;5.660;2023-08-07T00:43:15;14.80;99.90
52495;DHT22;38405;53.212;5.660;2023-08-07T00:45:46;14.80;99.90
52495;DHT22;38405;53.212;5.660;2023-08-07T00:48:13;14.80;99.90
52495;DHT22;38405;53.212;5.660;2023-08-07T00:50:41;14.80;99.90
52495;DHT22;38405;53.212;5.660;2023-08-07T00:53:08;14.70;99.90
52495;DHT22;38405;53.212;5.660;2023-08-07T00:55:35;14.80;99.90
52495;DHT22;38405;53.212;5.660;2023-08-07T00:58:04;14.70;99.90
52495;DHT22;38405;53.212;5.660;2023-08-07T01:00:29;14.80;99.90
52495;DHT22;38405;53.212;5.660;2023-08-07T01:02:59;14.70;99.90
52495;DHT22;38405;53.212;5.660;2023-08-07T01:05:29;14.70;99.90
52495;DHT22;38405;53.212;5.660;2023-08-07T01:07:55;14.60;99.90
52495;DHT22;38405;53.212;5.660;2023-08-07T01:10:38;14.60;99.90
52495;DHT22;38405;53.212;5.660;2023-08-07T01:13:32;14.60;99.90
52495;DHT22;38405;53.212;5.660;2023-08-07T01:16:10;14.50;99.90
52495;DHT22;38405;53.212;5.660;2023-08-07T01:18:38;14.50;99.90
52495;DHT22;38405;53.212;5.660;2023-08-07T01:21:04;14.40;99.90
52495;DHT22;38405;53.212;5.660;2023-08-07T01:23:30;14.40;99.90
52495;DHT22;38405;53.212;5.660;2023-08-07T01:25:56;14.30;99.90
52495;DHT22;38405;53.212;5.660;2023-08-07T01:28:33;14.20;99.90
52495;DHT22;38405;53.212;5.660;2023-08-07T01:31:11;14.10;99.90
52495;DHT22;38405;53.212;5.660;2023-08-07T01:33:57;14.10;99.90
52495;DHT22;38405;53.212;5.660;2023-08-07T01:36:26;14.00;99.90
52495;DHT22;38405;53.212;5.660;2023-08-07T01:38:53;14.00;99.90
52495;DHT22;38405;53.212;5.660;2023-08-07T01:41:19;13.90;99.90
52495;DHT22;38405;53.212;5.660;2023-08-07T01:43:45;13.90;99.90
52495;DHT22;38405;53.212;5.660;2023-08-07T01:46:11;13.90;99.90
52495;DHT22;38405;53.212;5.660;2023-08-07T01:48:37;13.80;99.90
52495;DHT22;38405;53.212;5.660;2023-08-07T01:51:02;13.80;99.90
52495;DHT22;38405;53.212;5.660;2023-08-07T01:53:28;13.80;99.90
52495;DHT22;38405;53.212;5.660;2023-08-07T01:55:54;13.80;99.90
52495;DHT22;38405;53.212;5.660;2023-08-07T01:58:20;13.80;99.90
52495;DHT22;38405;53.212;5.660;2023-08-07T02:00:45;13.80;99.90
52495;DHT22;38405;53.212;5.660;2023-08-07T02:03:11;13.80;99.90
52495;DHT22;38405;53.212;5.660;2023-08-07T02:05:36;13.80;99.90
52495;DHT22;38405;53.212;5.660;2023-08-07T02:08:04;13.80;99.90
52495;DHT22;38405;53.212;5.660;2023-08-07T02:10:29;14.00;99.90
52495;DHT22;38405;53.212;5.660;2023-08-07T02:12:57;14.20;99.90
52495;DHT22;38405;53.212;5.660;2023-08-07T02:15:23;14.20;99.90
52495;DHT22;38405;53.212;5.660;2023-08-07T02:17:48;14.20;99.90
52495;DHT22;38405;53.212;5.660;2023-08-07T02:20:14;14.20;99.90
52495;DHT22;38405;53.212;5.660;2023-08-07T02:22:40;14.20;99.90
52495;DHT22;38405;53.212;5.660;2023-08-07T02:25:06;14.20;99.90
52495;DHT22;38405;53.212;5.660;2023-08-07T02:27:32;14.20;99.90
52495;DHT22;38405;53.212;5.660;2023-08-07T02:29:57;14.20;99.90
52495;DHT22;38405;53.212;5.660;2023-08-07T02:32:23;14.30;99.90
52495;DHT22;38405;53.212;5.660;2023-08-07T02:34:48;14.50;99.90
52495;DHT22;38405;53.212;5.660;2023-08-07T02:37:14;14.60;99.90
52495;DHT22;38405;53.212;5.660;2023-08-07T02:39:41;14.60;99.90
52495;DHT22;38405;53.212;5.660;2023-08-07T02:42:07;14.60;99.90
52495;DHT22;38405;53.212;5.660;2023-08-07T02:44:32;14.70;99.90
52495;DHT22;38405;53.212;5.660;2023-08-07T02:46:58;14.70;99.90
52495;DHT22;38405;53.212;5.660;2023-08-07T02:49:23;14.80;99.90
52495;DHT22;38405;53.212;5.660;2023-08-07T02:51:49;14.80;99.90
52495;DHT22;38405;53.212;5.660;2023-08-07T02:54:19;14.80;99.90
52495;DHT22;38405;53.212;5.660;2023-08-07T02:56:44;14.70;99.90
52495;DHT22;38405;53.212;5.660;2023-08-07T02:59:10;14.70;99.90
52495;DHT22;38405;53.212;5.660;2023-08-07T03:01:39;14.70;99.90
52495;DHT22;38405;53.212;5.660;2023-08-07T03:04:04;14.80;99.90
52495;DHT22;38405;53.212;5.660;2023-08-07T03:06:30;14.80;99.90
52495;DHT22;38405;53.212;5.660;2023-08-07T03:08:56;14.80;99.90
52495;DHT22;38405;53.212;5.660;2023-08-07T03:11:21;14.80;99.90
52495;DHT22;38405;53.212;5.660;2023-08-07T03:13:47;14.80;99.90
52495;DHT22;38405;53.212;5.660;2023-08-07T03:16:14;14.90;99.90
52495;DHT22;38405;53.212;5.660;2023-08-07T03:18:42;14.90;99.90
52495;DHT22;38405;53.212;5.660;2023-08-07T03:21:08;14.90;99.90
52495;DHT22;38405;53.212;5.660;2023-08-07T03:23:34;14.80;99.90
52495;DHT22;38405;53.212;5.660;2023-08-07T03:26:07;14.70;99.90
52495;DHT22;38405;53.212;5.660;2023-08-07T03:28:34;14.70;99.90
52495;DHT22;38405;53.212;5.660;2023-08-07T03:31:00;14.60;99.90
52495;DHT22;38405;53.212;5.660;2023-08-07T03:33:26;14.60;99.90
52495;DHT22;38405;53.212;5.660;2023-08-07T03:35:52;14.60;99.90
52495;DHT22;38405;53.212;5.660;2023-08-07T03:38:18;14.70;99.90
52495;DHT22;38405;53.212;5.660;2023-08-07T03:40:43;14.70;99.90
52495;DHT22;38405;53.212;5.660;2023-08-07T03:43:09;14.60;99.90
52495;DHT22;38405;53.212;5.660;2023-08-07T03:45:35;14.50;99.90
52495;DHT22;38405;53.212;5.660;2023-08-07T03:48:01;14.40;99.90
52495;DHT22;38405;53.212;5.660;2023-08-07T03:50:26;14.30;99.90
52495;DHT22;38405;53.212;5.660;2023-08-07T03:52:55;14.30;99.90
52495;DHT22;38405;53.212;5.660;2023-08-07T03:55:20;14.20;99.90
52495;DHT22;38405;53.212;5.660;2023-08-07T03:57:46;14.30;99.90
52495;DHT22;38405;53.212;5.660;2023-08-07T04:00:12;14.30;99.90
52495;DHT22;38405;53.212;5.660;2023-08-07T04:02:39;14.20;99.90
52495;DHT22;38405;53.212;5.660;2023-08-07T04:05:04;14.20;99.90
52495;DHT22;38405;53.212;5.660;2023-08-07T04:07:30;14.20;99.90
52495;DHT22;38405;53.212;5.660;2023-08-07T04:09:56;14.20;99.90
52495;DHT22;38405;53.212;5.660;2023-08-07T04:12:21;14.20;99.90
52495;DHT22;38405;53.212;5.660;2023-08-07T04:14:47;14.10;99.90
52495;DHT22;38405;53.212;5.660;2023-08-07T04:17:16;14.10;99.90
52495;DHT22;38405;53.212;5.660;2023-08-07T04:19:41;14.00;99.90
52495;DHT22;38405;53.212;5.660;2023-08-07T04:22:07;14.00;99.90
52495;DHT22;38405;53.212;5.660;2023-08-07T04:24:33;14.10;99.90
52495;DHT22;38405;53.212;5.660;2023-08-07T04:27:01;14.10;99.90
52495;DHT22;38405;53.212;5.660;2023-08-07T04:29:27;14.10;99.90
52495;DHT22;38405;53.212;5.660;2023-08-07T04:31:52;14.20;99.90
52495;DHT22;38405;53.212;5.660;2023-08-07T04:34:18;14.20;99.90
52495;DHT22;38405;53.212;5.660;2023-08-07T04:36:44;14.20;99.90
52495;DHT22;38405;53.212;5.660;2023-08-07T04:39:10;14.20;99.90
52495;DHT22;38405;53.212;5.660;2023-08-07T04:41:36;14.30;99.90
52495;DHT22;38405;53.212;5.660;2023-08-07T04:44:02;14.30;99.90
52495;DHT22;38405;53.212;5.660;2023-08-07T04:46:28;14.30;99.90
52495;DHT22;38405;53.212;5.660;2023-08-07T04:48:54;14.40;99.90
52495;DHT22;38405;53.212;5.660;2023-08-07T04:51:19;14.50;99.90
52495;DHT22;38405;53.212;5.660;2023-08-07T04:53:45;14.50;99.90
52495;DHT22;38405;53.212;5.660;2023-08-07T04:56:11;14.50;99.90
52495;DHT22;38405;53.212;5.660;2023-08-07T04:58:37;14.50;99.90
52495;DHT22;38405;53.212;5.660;2023-08-07T05:01:02;14.50;99.90
52495;DHT22;38405;53.212;5.660;2023-08-07T05:03:28;14.50;99.90
52495;DHT22;38405;53.212;5.660;2023-08-07T05:06:02;14.50;99.90
52495;DHT22;38405;53.212;5.660;2023-08-07T05:08:28;14.50;99.90
52495;DHT22;38405;53.212;5.660;2023-08-07T05:10:54;14.40;99.90
52495;DHT22;38405;53.212;5.660;2023-08-07T05:13:19;14.40;99.90
52495;DHT22;38405;53.212;5.660;2023-08-07T05:15:47;14.50;99.90
52495;DHT22;38405;53.212;5.660;2023-08-07T05:18:13;14.50;99.90
52495;DHT22;38405;53.212;5.660;2023-08-07T05:20:39;14.60;99.90
52495;DHT22;38405;53.212;5.660;2023-08-07T05:23:05;14.60;99.90
52495;DHT22;38405;53.212;5.660;2023-08-07T05:25:33;14.60;99.90
52495;DHT22;38405;53.212;5.660;2023-08-07T05:27:59;14.60;99.90
52495;DHT22;38405;53.212;5.660;2023-08-07T05:30:25;14.70;99.90
52495;DHT22;38405;53.212;5.660;2023-08-07T05:32:50;14.70;99.90
52495;DHT22;38405;53.212;5.660;2023-08-07T05:35:16;14.70;99.90
52495;DHT22;38405;53.212;5.660;2023-08-07T05:37:42;14.80;99.90
52495;DHT22;38405;53.212;5.660;2023-08-07T05:40:07;14.70;99.90
52495;DHT22;38405;53.212;5.660;2023-08-07T05:42:33;14.70;99.90
52495;DHT22;38405;53.212;5.660;2023-08-07T05:45:00;14.70;99.90
52495;DHT22;38405;53.212;5.660;2023-08-07T05:47:29;14.70;99.90
52495;DHT22;38405;53.212;5.660;2023-08-07T05:49:54;14.70;99.90
52495;DHT22;38405;53.212;5.660;2023-08-07T05:52:20;14.70;99.90
52495;DHT22;38405;53.212;5.660;2023-08-07T05:54:46;14.70;99.90
52495;DHT22;38405;53.212;5.660;2023-08-07T05:57:12;14.70;99.90
52495;DHT22;38405;53.212;5.660;2023-08-07T05:59:38;14.70;99.90
52495;DHT22;38405;53.212;5.660;2023-08-07T06:02:06;14.70;99.90
52495;DHT22;38405;53.212;5.660;2023-08-07T06:04:32;14.70;99.90
52495;DHT22;38405;53.212;5.660;2023-08-07T06:06:58;14.70;99.90
52495;DHT22;38405;53.212;5.660;2023-08-07T06:09:23;14.80;99.90
52495;DHT22;38405;53.212;5.660;2023-08-07T06:11:49;14.80;99.90
52495;DHT22;38405;53.212;5.660;2023-08-07T06:14:15;14.90;99.90
52495;DHT22;38405;53.212;5.660;2023-08-07T06:16:40;15.00;99.90
52495;DHT22;38405;53.212;5.660;2023-08-07T06:19:06;15.10;99.90
52495;DHT22;38405;53.212;5.660;2023-08-07T06:21:32;15.20;99.90
52495;DHT22;38405;53.212;5.660;2023-08-07T06:23:58;15.30;99.90
52495;DHT22;38405;53.212;5.660;2023-08-07T06:26:25;15.40;99.90
52495;DHT22;38405;53.212;5.660;2023-08-07T06:28:51;15.50;99.90
52495;DHT22;38405;53.212;5.660;2023-08-07T06:31:18;15.50;99.90
52495;DHT22;38405;53.212;5.660;2023-08-07T06:33:44;15.40;99.90
52495;DHT22;38405;53.212;5.660;2023-08-07T06:36:09;15.50;99.90
52495;DHT22;38405;53.212;5.660;2023-08-07T06:38:35;15.60;99.90
52495;DHT22;38405;53.212;5.660;2023-08-07T06:41:01;15.40;99.90
52495;DHT22;38405;53.212;5.660;2023-08-07T06:43:27;15.00;99.90
52495;DHT22;38405;53.212;5.660;2023-08-07T06:45:54;14.60;99.90
52495;DHT22;38405;53.212;5.660;2023-08-07T06:48:23;14.40;99.90
52495;DHT22;38405;53.212;5.660;2023-08-07T06:50:49;14.40;99.90
52495;DHT22;38405;53.212;5.660;2023-08-07T06:53:16;14.40;99.90
52495;DHT22;38405;53.212;5.660;2023-08-07T06:55:42;14.50;99.90
52495;DHT22;38405;53.212;5.660;2023-08-07T06:58:08;14.80;99.90
52495;DHT22;38405;53.212;5.660;2023-08-07T07:00:34;15.10;99.90
52495;DHT22;38405;53.212;5.660;2023-08-07T07:03:08;15.30;99.90
52495;DHT22;38405;53.212;5.660;2023-08-07T07:05:35;15.50;99.90
52495;DHT22;38405;53.212;5.660;2023-08-07T07:08:01;16.00;99.90
52495;DHT22;38405;53.212;5.660;2023-08-07T07:10:26;16.40;99.90
52495;DHT22;38405;53.212;5.660;2023-08-07T07:12:52;16.30;99.90
52495;DHT22;38405;53.212;5.660;2023-08-07T07:15:21;16.10;99.90
52495;DHT22;38405;53.212;5.660;2023-08-07T07:17:47;16.10;99.90
52495;DHT22;38405;53.212;5.660;2023-08-07T07:20:12;16.10;99.90
52495;DHT22;38405;53.212;5.660;2023-08-07T07:22:38;16.10;99.90
52495;DHT22;38405;53.212;5.660;2023-08-07T07:25:05;15.90;99.90
52495;DHT22;38405;53.212;5.660;2023-08-07T07:27:31;15.50;99.90
52495;DHT22;38405;53.212;5.660;2023-08-07T07:29:56;15.10;99.90
52495;DHT22;38405;53.212;5.660;2023-08-07T07:32:22;14.90;99.90
52495;DHT22;38405;53.212;5.660;2023-08-07T07:34:50;14.80;99.90
52495;DHT22;38405;53.212;5.660;2023-08-07T07:37:16;14.70;99.90
52495;DHT22;38405;53.212;5.660;2023-08-07T07:39:44;14.70;99.90
52495;DHT22;38405;53.212;5.660;2023-08-07T07:42:09;14.80;99.90
52495;DHT22;38405;53.212;5.660;2023-08-07T07:44:38;14.90;99.90
52495;DHT22;38405;53.212;5.660;2023-08-07T07:47:05;15.00;99.90
52495;DHT22;38405;53.212;5.660;2023-08-07T07:49:32;15.00;99.90
52495;DHT22;38405;53.212;5.660;2023-08-07T07:51:58;15.30;99.90
52495;DHT22;38405;53.212;5.660;2023-08-07T07:54:24;16.40;99.90
52495;DHT22;38405;53.212;5.660;2023-08-07T07:56:49;17.50;99.90
52495;DHT22;38405;53.212;5.660;2023-08-07T07:59:15;17.70;99.90
52495;DHT22;38405;53.212;5.660;2023-08-07T08:01:46;18.30;99.90
52495;DHT22;38405;53.212;5.660;2023-08-07T08:04:12;19.40;99.90
52495;DHT22;38405;53.212;5.660;2023-08-07T08:06:39;20.20;99.90
52495;DHT22;38405;53.212;5.660;2023-08-07T08:09:05;20.80;99.90
52495;DHT22;38405;53.212;5.660;2023-08-07T08:11:31;21.40;99.90
52495;DHT22;38405;53.212;5.660;2023-08-07T08:13:56;22.00;99.90
52495;DHT22;38405;53.212;5.660;2023-08-07T08:16:25;22.40;99.90
52495;DHT22;38405;53.212;5.660;2023-08-07T08:18:51;22.40;99.90
52495;DHT22;38405;53.212;5.660;2023-08-07T08:21:16;22.00;99.90
52495;DHT22;38405;53.212;5.660;2023-08-07T08:23:42;21.80;99.90
52495;DHT22;38405;53.212;5.660;2023-08-07T08:26:08;22.10;99.90
52495;DHT22;38405;53.212;5.660;2023-08-07T08:28:33;22.20;99.90
52495;DHT22;38405;53.212;5.660;2023-08-07T08:30:59;22.40;99.90
52495;DHT22;38405;53.212;5.660;2023-08-07T08:33:25;22.40;99.90
52495;DHT22;38405;53.212;5.660;2023-08-07T08:35:50;22.50;99.90
52495;DHT22;38405;53.212;5.660;2023-08-07T08:38:16;22.00;99.90
52495;DHT22;38405;53.212;5.660;2023-08-07T08:40:44;21.00;99.90
52495;DHT22;38405;53.212;5.660;2023-08-07T08:43:12;20.00;99.90
52495;DHT22;38405;53.212;5.660;2023-08-07T08:45:40;19.40;99.90
52495;DHT22;38405;53.212;5.660;2023-08-07T08:48:07;19.40;99.90
52495;DHT22;38405;53.212;5.660;2023-08-07T08:50:37;19.60;99.90
52495;DHT22;38405;53.212;5.660;2023-08-07T08:53:04;20.10;99.90
52495;DHT22;38405;53.212;5.660;2023-08-07T08:55:30;20.60;99.90
52495;DHT22;38405;53.212;5.660;2023-08-07T08:57:57;20.10;99.90
52495;DHT22;38405;53.212;5.660;2023-08-07T09:00:26;19.30;99.90
52495;DHT22;38405;53.212;5.660;2023-08-07T09:02:52;18.70;99.90
52495;DHT22;38405;53.212;5.660;2023-08-07T09:05:19;19.10;99.90
52495;DHT22;38405;53.212;5.660;2023-08-07T09:07:47;19.50;99.90
52495;DHT22;38405;53.212;5.660;2023-08-07T09:10:13;19.00;99.90
52495;DHT22;38405;53.212;5.660;2023-08-07T09:12:44;19.20;99.90
52495;DHT22;38405;53.212;5.660;2023-08-07T09:15:14;20.30;99.90
52495;DHT22;38405;53.212;5.660;2023-08-07T09:17:42;21.20;99.90
52495;DHT22;38405;53.212;5.660;2023-08-07T09:20:10;20.60;99.90
52495;DHT22;38405;53.212;5.660;2023-08-07T09:22:41;20.00;99.90
52495;DHT22;38405;53.212;5.660;2023-08-07T09:25:07;19.30;99.90
52495;DHT22;38405;53.212;5.660;2023-08-07T09:27:36;18.70;99.90
52495;DHT22;38405;53.212;5.660;2023-08-07T09:30:02;18.30;99.90
52495;DHT22;38405;53.212;5.660;2023-08-07T09:32:30;17.90;99.90
52495;DHT22;38405;53.212;5.660;2023-08-07T09:34:56;17.70;99.90
52495;DHT22;38405;53.212;5.660;2023-08-07T09:37:23;17.50;99.90
52495;DHT22;38405;53.212;5.660;2023-08-07T09:39:49;17.30;99.90
52495;DHT22;38405;53.212;5.660;2023-08-07T09:42:15;17.90;99.90
52495;DHT22;38405;53.212;5.660;2023-08-07T09:44:42;18.70;99.90
52495;DHT22;38405;53.212;5.660;2023-08-07T09:47:15;19.40;99.90
52495;DHT22;38405;53.212;5.660;2023-08-07T09:49:42;20.00;99.90
52495;DHT22;38405;53.212;5.660;2023-08-07T09:52:10;20.50;99.90
52495;DHT22;38405;53.212;5.660;2023-08-07T09:54:36;20.40;99.90
52495;DHT22;38405;53.212;5.660;2023-08-07T09:57:03;20.00;99.90
52495;DHT22;38405;53.212;5.660;2023-08-07T09:59:29;20.00;99.90
52495;DHT22;38405;53.212;5.660;2023-08-07T10:01:55;20.10;99.90
52495;DHT22;38405;53.212;5.660;2023-08-07T10:04:25;20.30;99.90
52495;DHT22;38405;53.212;5.660;2023-08-07T10:06:53;20.40;99.90
52495;DHT22;38405;53.212;5.660;2023-08-07T10:09:18;20.50;99.90
52495;DHT22;38405;53.212;5.660;2023-08-07T10:11:45;20.60;99.90
52495;DHT22;38405;53.212;5.660;2023-08-07T10:14:12;20.40;99.90
52495;DHT22;38405;53.212;5.660;2023-08-07T10:16:40;20.00;99.90
52495;DHT22;38405;53.212;5.660;2023-08-07T10:19:07;19.70;99.70
52495;DHT22;38405;53.212;5.660;2023-08-07T10:21:38;19.70;99.90
52495;DHT22;38405;53.212;5.660;2023-08-07T10:24:08;19.70;99.90
52495;DHT22;38405;53.212;5.660;2023-08-07T10:26:36;19.80;99.90
52495;DHT22;38405;53.212;5.660;2023-08-07T10:29:05;19.80;99.90
52495;DHT22;38405;53.212;5.660;2023-08-07T10:31:33;20.00;99.80
52495;DHT22;38405;53.212;5.660;2023-08-07T10:34:01;20.20;99.90
52495;DHT22;38405;53.212;5.660;2023-08-07T10:36:34;20.50;99.90
52495;DHT22;38405;53.212;5.660;2023-08-07T10:39:15;20.60;99.90
52495;DHT22;38405;53.212;5.660;2023-08-07T10:41:44;20.90;99.90
52495;DHT22;38405;53.212;5.660;2023-08-07T10:44:20;20.90;99.50
52495;DHT22;38405;53.212;5.660;2023-08-07T10:46:53;20.90;99.30
52495;DHT22;38405;53.212;5.660;2023-08-07T10:49:40;20.80;99.50
52495;DHT22;38405;53.212;5.660;2023-08-07T10:52:14;20.80;98.20
52495;DHT22;38405;53.212;5.660;2023-08-07T10:54:50;20.40;99.30
52495;DHT22;38405;53.212;5.660;2023-08-07T10:57:18;20.30;99.70
52495;DHT22;38405;53.212;5.660;2023-08-07T10:59:51;20.40;99.90
52495;DHT22;38405;53.212;5.660;2023-08-07T11:02:28;20.30;99.90
52495;DHT22;38405;53.212;5.660;2023-08-07T11:04:54;20.30;99.90
52495;DHT22;38405;53.212;5.660;2023-08-07T11:07:28;20.10;99.90
52495;DHT22;38405;53.212;5.660;2023-08-07T11:09:54;20.00;99.90
52495;DHT22;38405;53.212;5.660;2023-08-07T11:12:20;20.20;99.90
52495;DHT22;38405;53.212;5.660;2023-08-07T11:14:46;20.40;99.90
52495;DHT22;38405;53.212;5.660;2023-08-07T11:17:12;20.40;99.90
52495;DHT22;38405;53.212;5.660;2023-08-07T11:19:38;20.00;99.90
52495;DHT22;38405;53.212;5.660;2023-08-07T11:22:04;19.50;99.90
52495;DHT22;38405;53.212;5.660;2023-08-07T11:24:30;18.90;99.90
52495;DHT22;38405;53.212;5.660;2023-08-07T11:26:56;18.50;99.90
52495;DHT22;38405;53.212;5.660;2023-08-07T11:29:24;18.10;99.90
52495;DHT22;38405;53.212;5.660;2023-08-07T11:31:53;17.90;99.90
52495;DHT22;38405;53.212;5.660;2023-08-07T11:34:19;17.80;99.90
52495;DHT22;38405;53.212;5.660;2023-08-07T11:36:45;17.60;99.90
52495;DHT22;38405;53.212;5.660;2023-08-07T11:39:12;17.50;99.90
52495;DHT22;38405;53.212;5.660;2023-08-07T11:41:38;17.60;99.90
52495;DHT22;38405;53.212;5.660;2023-08-07T11:44:04;17.90;99.90
52495;DHT22;38405;53.212;5.660;2023-08-07T11:46:34;18.10;99.90
52495;DHT22;38405;53.212;5.660;2023-08-07T11:48:59;18.20;99.90
52495;DHT22;38405;53.212;5.660;2023-08-07T11:51:25;18.20;99.90
52495;DHT22;38405;53.212;5.660;2023-08-07T11:53:52;18.10;99.90
52495;DHT22;38405;53.212;5.660;2023-08-07T11:56:22;18.00;99.90
52495;DHT22;38405;53.212;5.660;2023-08-07T11:58:48;18.00;99.90
52495;DHT22;38405;53.212;5.660;2023-08-07T12:01:18;18.30;99.90
52495;DHT22;38405;53.212;5.660;2023-08-07T12:06:17;18.70;99.90
52495;DHT22;38405;53.212;5.660;2023-08-07T12:08:43;19.00;99.90
52495;DHT22;38405;53.212;5.660;2023-08-07T12:11:11;19.20;99.90
52495;DHT22;38405;53.212;5.660;2023-08-07T12:13:42;19.30;99.90
52495;DHT22;38405;53.212;5.660;2023-08-07T12:16:09;19.40;99.90
52495;DHT22;38405;53.212;5.660;2023-08-07T12:18:36;19.40;99.90
52495;DHT22;38405;53.212;5.660;2023-08-07T12:21:04;19.50;99.90
52495;DHT22;38405;53.212;5.660;2023-08-07T12:23:33;19.70;99.90
52495;DHT22;38405;53.212;5.660;2023-08-07T12:26:00;19.70;99.90
52495;DHT22;38405;53.212;5.660;2023-08-07T12:28:26;19.50;99.90
52495;DHT22;38405;53.212;5.660;2023-08-07T12:30:52;19.30;99.90
52495;DHT22;38405;53.212;5.660;2023-08-07T12:33:18;19.10;99.90
52495;DHT22;38405;53.212;5.660;2023-08-07T12:35:44;18.80;99.90
52495;DHT22;38405;53.212;5.660;2023-08-07T12:38:10;18.70;99.90
52495;DHT22;38405;53.212;5.660;2023-08-07T12:40:37;18.60;99.90
52495;DHT22;38405;53.212;5.660;2023-08-07T12:43:06;18.60;99.90
52495;DHT22;38405;53.212;5.660;2023-08-07T12:45:31;18.70;99.90
52495;DHT22;38405;53.212;5.660;2023-08-07T12:47:58;18.80;99.90
52495;DHT22;38405;53.212;5.660;2023-08-07T12:50:24;19.00;99.90
52495;DHT22;38405;53.212;5.660;2023-08-07T12:52:50;19.10;99.90
52495;DHT22;38405;53.212;5.660;2023-08-07T12:55:16;19.00;99.90
52495;DHT22;38405;53.212;5.660;2023-08-07T12:57:42;19.00;99.90
52495;DHT22;38405;53.212;5.660;2023-08-07T13:00:11;19.10;99.90
52495;DHT22;38405;53.212;5.660;2023-08-07T13:02:42;19.10;99.90
52495;DHT22;38405;53.212;5.660;2023-08-07T13:05:08;19.20;99.90
52495;DHT22;38405;53.212;5.660;2023-08-07T13:07:36;19.30;99.90
52495;DHT22;38405;53.212;5.660;2023-08-07T13:10:05;19.30;99.90
52495;DHT22;38405;53.212;5.660;2023-08-07T13:12:30;19.10;99.90
52495;DHT22;38405;53.212;5.660;2023-08-07T13:15:00;19.00;99.90
52495;DHT22;38405;53.212;5.660;2023-08-07T13:17:25;19.00;99.90
52495;DHT22;38405;53.212;5.660;2023-08-07T13:19:51;19.00;99.90
52495;DHT22;38405;53.212;5.660;2023-08-07T13:22:17;19.10;99.90
52495;DHT22;38405;53.212;5.660;2023-08-07T13:24:42;19.00;99.90
52495;DHT22;38405;53.212;5.660;2023-08-07T13:27:08;18.90;99.90
52495;DHT22;38405;53.212;5.660;2023-08-07T13:29:34;18.90;99.90
52495;DHT22;38405;53.212;5.660;2023-08-07T13:32:00;18.80;99.90
52495;DHT22;38405;53.212;5.660;2023-08-07T13:34:25;18.70;99.90
52495;DHT22;38405;53.212;5.660;2023-08-07T13:36:52;18.70;99.90
52495;DHT22;38405;53.212;5.660;2023-08-07T13:39:21;18.70;99.90
52495;DHT22;38405;53.212;5.660;2023-08-07T13:41:47;18.70;99.90
52495;DHT22;38405;53.212;5.660;2023-08-07T13:44:12;18.70;99.90
52495;DHT22;38405;53.212;5.660;2023-08-07T13:46:38;18.60;99.90
52495;DHT22;38405;53.212;5.660;2023-08-07T13:49:04;18.50;99.90
52495;DHT22;38405;53.212;5.660;2023-08-07T13:51:29;18.50;99.90
52495;DHT22;38405;53.212;5.660;2023-08-07T13:53:55;18.60;99.90
52495;DHT22;38405;53.212;5.660;2023-08-07T13:56:21;18.70;99.90
52495;DHT22;38405;53.212;5.660;2023-08-07T13:58:47;18.70;99.90
52495;DHT22;38405;53.212;5.660;2023-08-07T14:01:13;18.60;99.90
52495;DHT22;38405;53.212;5.660;2023-08-07T14:03:39;18.70;99.90
52495;DHT22;38405;53.212;5.660;2023-08-07T14:06:05;18.70;99.90
52495;DHT22;38405;53.212;5.660;2023-08-07T14:08:31;18.70;99.90
52495;DHT22;38405;53.212;5.660;2023-08-07T14:10:58;18.80;99.90
52495;DHT22;38405;53.212;5.660;2023-08-07T14:13:24;18.90;99.90
52495;DHT22;38405;53.212;5.660;2023-08-07T14:15:49;18.90;99.90
52495;DHT22;38405;53.212;5.660;2023-08-07T14:18:15;18.90;99.90
52495;DHT22;38405;53.212;5.660;2023-08-07T14:20:41;19.00;99.90
52495;DHT22;38405;53.212;5.660;2023-08-07T14:23:07;19.10;99.90
52495;DHT22;38405;53.212;5.660;2023-08-07T14:25:32;19.10;99.90
52495;DHT22;38405;53.212;5.660;2023-08-07T14:27:58;18.90;99.90
52495;DHT22;38405;53.212;5.660;2023-08-07T14:30:24;18.70;99.90
52495;DHT22;38405;53.212;5.660;2023-08-07T14:32:50;18.70;99.90
52495;DHT22;38405;53.212;5.660;2023-08-07T14:35:15;18.60;99.90
52495;DHT22;38405;53.212;5.660;2023-08-07T14:37:42;18.60;99.90
52495;DHT22;38405;53.212;5.660;2023-08-07T14:40:12;18.70;99.90
52495;DHT22;38405;53.212;5.660;2023-08-07T14:42:38;18.80;99.90
52495;DHT22;38405;53.212;5.660;2023-08-07T14:45:04;18.80;99.90
52495;DHT22;38405;53.212;5.660;2023-08-07T14:47:35;18.90;99.90
52495;DHT22;38405;53.212;5.660;2023-08-07T14:50:01;19.00;99.90
52495;DHT22;38405;53.212;5.660;2023-08-07T14:52:27;18.90;99.90
52495;DHT22;38405;53.212;5.660;2023-08-07T14:54:52;19.00;99.90
52495;DHT22;38405;53.212;5.660;2023-08-07T14:57:21;19.10;99.90
52495;DHT22;38405;53.212;5.660;2023-08-07T14:59:47;19.10;99.90
52495;DHT22;38405;53.212;5.660;2023-08-07T15:02:12;19.10;99.90
52495;DHT22;38405;53.212;5.660;2023-08-07T15:04:38;19.20;99.90
52495;DHT22;38405;53.212;5.660;2023-08-07T15:07:04;19.10;99.90
52495;DHT22;38405;53.212;5.660;2023-08-07T15:09:30;19.00;99.90
52495;DHT22;38405;53.212;5.660;2023-08-07T15:11:56;18.90;99.90
52495;DHT22;38405;53.212;5.660;2023-08-07T15:14:21;18.70;99.90
52495;DHT22;38405;53.212;5.660;2023-08-07T15:16:47;18.70;99.90
52495;DHT22;38405;53.212;5.660;2023-08-07T15:19:13;18.60;99.90
52495;DHT22;38405;53.212;5.660;2023-08-07T15:21:38;18.70;99.90
52495;DHT22;38405;53.212;5.660;2023-08-07T15:24:04;18.70;99.90
52495;DHT22;38405;53.212;5.660;2023-08-07T15:29:05;18.70;99.90
52495;DHT22;38405;53.212;5.660;2023-08-07T15:31:34;18.80;99.90
52495;DHT22;38405;53.212;5.660;2023-08-07T15:33:59;19.00;99.90